»·PEaware :: ECADR KTOA-KVNY

ECADR :: KTOA-KVNY

FLIGHT INFORMATION

Flight Status: Arrived
Operator: Unknown
More flights by this operator :: More flights under this callsign
Pilot: Adrián R. (20842)
Aircraft: CESSNA 172 SKYHAWK
(C172)
More flights by this aircraft type
Origin: KTOA Zamperini
United States
Destination: KVNY Van Nuys
United States
More flights between these airports :: More routes between these airports
Route: MINI ROUTE
File this flight plan on PilotEdge
Remarks: CAT 10 RATING
Altitude:
(Current/Filed)
2,500ft
Speed:
(Current/Filed)
100kts
Departed: 01-Nov-18 07:18 AM
Arrived: 01-Nov-18 07:38 AM
Distance/Time
Traveled:
26nm/0:20
Distance/Time
To Go:
Arrived

Flight Plot

Page will automatically refresh every two minutes.


Map Options




Map Legend


Flown Route
Filed Route
Departure Airport
Arrival Airport
Navaid (VOR, NDB)
Fix

Horizontal Profiles

Position Reports

Time Latitude Longitude Heading Altitude Ground
Speed
01-Nov-18 06:56 33.796503 -118.332401 0 101ft 0kts
01-Nov-18 06:57 33.796503 -118.332401 0 101ft 0kts
01-Nov-18 06:58 33.796503 -118.332401 0 101ft 0kts
01-Nov-18 06:59 33.796503 -118.332401 0 101ft 0kts
01-Nov-18 07:00 33.796503 -118.332401 0 101ft 0kts
01-Nov-18 07:01 33.796503 -118.332401 0 101ft 0kts
01-Nov-18 07:02 33.796503 -118.332401 0 101ft 0kts
01-Nov-18 07:03 33.796503 -118.332401 0 101ft 0kts
01-Nov-18 07:04 33.796503 -118.332401 0 101ft 0kts
01-Nov-18 07:05 33.796503 -118.332401 0 101ft 0kts
01-Nov-18 07:06 33.796503 -118.332401 0 101ft 0kts
01-Nov-18 07:07 33.796503 -118.332401 0 101ft 0kts
01-Nov-18 07:08 33.796503 -118.332401 0 101ft 0kts
01-Nov-18 07:09 33.796503 -118.332401 0 101ft 0kts
01-Nov-18 07:10 33.796503 -118.332401 359 101ft 0kts
01-Nov-18 07:11 33.796503 -118.332401 359 101ft 0kts
01-Nov-18 07:12 33.796557 -118.332402 358 101ft 3kts
01-Nov-18 07:13 33.797727 -118.333710 272 101ft 0kts
01-Nov-18 07:14 33.797727 -118.333710 272 101ft 0kts
01-Nov-18 07:15 33.797727 -118.333710 272 101ft 0kts
01-Nov-18 07:16 33.797727 -118.333710 272 101ft 0kts
01-Nov-18 07:17 33.798494 -118.335211 309 101ft 17kts
01-Nov-18 07:18 33.799808 -118.336790 36 101ft 0kts
01-Nov-18 07:19 33.799811 -118.336787 36 101ft 1kts
01-Nov-18 07:20 33.807164 -118.346043 312 521ft 69kts
01-Nov-18 07:21 33.822815 -118.345269 39 1513ft 79kts
01-Nov-18 07:22 33.840132 -118.330085 16 2478ft 79kts
01-Nov-18 07:23 33.867495 -118.334468 337 2531ft 111kts
01-Nov-18 07:24 33.894876 -118.348427 332 2513ft 101kts
01-Nov-18 07:25 33.915928 -118.368798 320 2514ft 95kts
01-Nov-18 07:26 33.937362 -118.390324 321 2514ft 105kts
01-Nov-18 07:27 33.961119 -118.412608 326 2513ft 111kts
01-Nov-18 07:28 33.986714 -118.434982 325 2512ft 115kts
01-Nov-18 07:29 34.012480 -118.457975 325 2541ft 116kts
01-Nov-18 07:30 34.040455 -118.477415 347 2540ft 116kts
01-Nov-18 07:31 34.072581 -118.482352 357 2540ft 117kts
01-Nov-18 07:32 34.104063 -118.489344 336 2553ft 113kts
01-Nov-18 07:33 34.124017 -118.512597 305 2552ft 103kts
01-Nov-18 07:34 34.143857 -118.530263 21 2470ft 92kts
01-Nov-18 07:35 34.169218 -118.514585 30 1878ft 105kts
01-Nov-18 07:36 34.192968 -118.505410 357 1800ft 84kts
01-Nov-18 07:37 34.215772 -118.507826 354 1913ft 82kts
01-Nov-18 07:38 34.234429 -118.504156 81 1597ft 74kts
01-Nov-18 07:39 34.220935 -118.491403 177 1031ft 68kts
01-Nov-18 07:40 34.208042 -118.491080 213 806ft 6kts
01-Nov-18 07:41 34.207995 -118.491161 246 806ft 0kts
01-Nov-18 07:42 34.209463 -118.491508 356 806ft 13kts
01-Nov-18 07:43 34.213026 -118.491844 355 806ft 12kts
01-Nov-18 07:44 34.216716 -118.492277 356 806ft 13kts
01-Nov-18 07:45 34.218703 -118.493485 88 806ft 0kts
01-Nov-18 07:46 34.218703 -118.493483 88 806ft 0kts
01-Nov-18 07:47 34.218703 -118.493483 88 806ft 0kts
01-Nov-18 07:48 34.218703 -118.493483 88 806ft 0kts
01-Nov-18 07:49 34.218703 -118.493483 88 806ft 0kts
01-Nov-18 07:50 34.218703 -118.493483 88 806ft 0kts
01-Nov-18 07:52 34.218703 -118.493483 88 806ft 0kts
01-Nov-18 07:53 34.218703 -118.493483 88 806ft 0kts
01-Nov-18 07:54 34.218703 -118.493483 88 806ft 0kts
01-Nov-18 07:55 34.218703 -118.493483 88 806ft 0kts
01-Nov-18 07:56 34.218703 -118.493483 88 806ft 0kts

Navigation Log

Ident Type
Flight plan parsing failed, navigation log unavailable